createdAt,value
2019-02-16T00:08:25.616Z,9.61
2019-02-16T00:28:35.084Z,9.73
2019-02-16T00:48:44.724Z,9.23
2019-02-16T01:08:54.218Z,9.03
2019-02-16T01:29:04.461Z,8.88
2019-02-16T01:49:06.160Z,9.69
2019-02-16T02:09:05.712Z,9.63
2019-02-16T02:29:15.256Z,7.33
2019-02-16T02:49:27.052Z,7.60
2019-02-16T03:09:26.670Z,7.84
2019-02-16T03:29:36.142Z,5.52
2019-02-16T03:49:48.110Z,5.21
2019-02-16T04:09:49.977Z,4.71
2019-02-16T04:29:49.616Z,5.40
2019-02-16T04:50:00.009Z,5.16
2019-02-16T05:09:59.634Z,6.63
2019-02-16T05:30:11.719Z,6.08
2019-02-16T05:50:11.410Z,6.83
2019-02-16T06:10:20.950Z,6.58
2019-02-16T06:30:32.928Z,7.28
2019-02-16T06:50:36.921Z,6.60
2019-02-16T07:10:41.941Z,4.92
2019-02-16T07:30:51.634Z,3.79
2019-02-16T07:51:04.944Z,4.52
2019-02-16T08:11:04.458Z,3.87
2019-02-16T08:31:14.135Z,4.04
2019-02-16T08:51:23.668Z,3.47
2019-02-16T09:11:33.289Z,3.73
2019-02-16T09:31:42.872Z,3.48
2019-02-16T09:51:54.812Z,3.60
2019-02-16T10:11:54.501Z,3.40
2019-02-16T10:32:06.406Z,3.66
2019-02-16T10:52:06.077Z,3.78
2019-02-16T11:12:15.878Z,4.48
2019-02-16T11:32:30.196Z,3.71
2019-02-16T11:52:29.928Z,4.61
2019-02-16T12:12:42.157Z,4.58
2019-02-16T12:33:19.498Z,5.92
2019-02-16T12:52:42.340Z,5.68
2019-02-16T12:59:52.671Z,5.97
2019-02-16T13:19:52.420Z,6.05
2019-02-16T13:40:02.159Z,6.78
2019-02-16T14:00:16.364Z,7.94
2019-02-16T14:20:15.940Z,8.79
2019-02-16T14:40:25.481Z,10.98
2019-02-16T15:00:35.117Z,9.62
2019-02-16T15:20:44.592Z,9.33
2019-02-16T15:40:58.851Z,10.72
2019-02-16T16:00:58.468Z,11.86
2019-02-16T16:21:08.081Z,12.20
2019-02-16T16:41:20.684Z,12.60
2019-02-16T17:01:20.307Z,11.31
2019-02-16T17:41:36.523Z,10.31
2019-02-16T18:01:46.128Z,10.57
2019-02-16T18:21:56.545Z,15.25
2019-02-16T18:41:56.269Z,14.98
2019-02-16T19:02:05.828Z,13.03
2019-02-16T19:22:15.327Z,11.70
2019-02-16T19:42:24.771Z,11.10
2019-02-16T20:02:36.813Z,10.10
2019-02-16T20:22:38.690Z,10.59
2019-02-16T20:42:41.464Z,9.33
2019-02-16T21:02:43.706Z,10.34
2019-02-16T21:22:45.455Z,12.47
2019-02-16T21:42:46.326Z,10.66
2019-02-16T22:02:54.014Z,11.19
2019-02-16T22:23:03.684Z,10.69
2019-02-16T22:43:13.274Z,9.97
2019-02-16T23:03:28.691Z,9.92
2019-02-16T23:23:28.249Z,10.51
2019-02-16T23:43:37.891Z,15.02
